Garland, Nebraska
Current Conditions -  °F | °C
As of 8:54 PM on Wednesday 22 Oct 2014 (Local Time) from KLNK Reporting Station
Light Rain Light Rain  
Wind Chill: 63°   Ceiling: 2700
Heat Index: 63°   Visibility: 3mi
Dew Point: 60°   Wind: 0mph
Humidity: 90%   Direction: NA
Pressure: 30.08"   Gusts: NA
Location:  40.94°N, 96.99°W
Report Text: KLNK 230154Z 00000KT 3SM -RA BR FEW005 BKN027 OVC036 17/16 A3008 RMK AO2 SLP181 P0026 T01720156
Loading
Personal Weather Stations






























Interactive Weather Map
Tropical Storm Tracking
New forecast layout! Learn more

10-Day Weather Forecast

Advertisements
Track Severe Weather on mobile